Time;durP1;ratioP1;P1;durP2;ratioP2;P2;SDS_P1;SDS_P2;PMS_P1;PMS_P2;Temp;Humidity;BMP_temperature;BMP_pressure;BME280_temperature;BME280_humidity;BME280_pressure;Samples;Min_cycle;Max_cycle;Signal;HPM_P1;HPM_P2
2023/01/07 00:00:06;;;;;;;;;;;;;;;8.39;59.76;100341.72;281609;34;5179;-77
2023/01/07 00:00:16;;;;;;;;;;;;;;;8.39;59.76;100341.72;282266;34;4818;-77
2023/01/07 00:00:26;;;;;;;;;;;;;;;8.38;59.54;100342.59;284549;34;1521;-77
2023/01/07 00:00:37;;;;;;;;;;;;;;;8.38;59.59;100342.59;280619;34;6788;-77
2023/01/07 00:00:47;;;;;;;;;;;;;;;8.39;59.39;100339.09;279429;34;9241;-77
2023/01/07 00:01:03;;;;;;;;;;;;;;;8.39;59.69;100345.19;280070;35;1185;-77
2023/01/07 00:01:17;;;;;;;;;;;;;;;8.37;59.27;100341.75;278152;35;9964;-77
2023/01/07 00:01:32;;;;;;;;;;;;;;;8.38;59.78;100340.00;273799;35;11325;-77
2023/01/07 00:01:42;;;;;;;;;;;;;;;8.38;59.75;100343.47;271204;36;1451;-77
2023/01/07 00:01:53;;;;;;;;;;;;;;;8.38;59.70;100343.47;271987;36;1538;-78
2023/01/07 00:03:45;;;;;;;;;;;;;;;8.37;59.43;100346.97;2491672;27;19930;-76
2023/01/07 00:03:55;;;;;;;;;;;;;;;8.37;59.34;100346.09;352333;28;1977;-76
2023/01/07 00:04:06;;;;;;;;;;;;;;;8.36;59.94;100347.84;351096;28;3505;-76
2023/01/07 00:04:16;;;;;;;;;;;;;;;8.36;59.59;100345.25;347385;28;1525;-76
2023/01/07 00:04:26;;;;;;;;;;;;;;;8.37;59.72;100351.31;345533;28;3650;-75
2023/01/07 00:04:37;;;;;;;;;;;;;;;8.35;59.55;100338.31;349523;28;3358;-76
2023/01/07 00:04:47;;;;;;;;;;;;;;;8.36;59.54;100344.38;351617;28;1287;-76
2023/01/07 00:04:57;;;;;;;;;;;;;;;8.36;59.88;100350.47;350428;28;1746;-76
2023/01/07 00:05:08;;;;;;;;;;;;;;;8.36;59.80;100344.38;349697;28;3426;-76
2023/01/07 00:05:18;;;;;;;;;;;;;;;8.36;59.80;100354.81;349025;28;1473;-76
2023/01/07 00:05:28;;;;;;;;;;;;;;;8.34;59.81;100347.88;344230;28;4431;-76
2023/01/07 00:05:38;;;;;;;;;;;;;;;8.34;59.60;100341.81;346009;28;5973;-76
2023/01/07 00:05:49;;;;;;;;;;;;;;;8.34;59.88;100347.88;348456;28;1450;-76
2023/01/07 00:06:03;;;;;;;;;;;;;;;8.34;59.97;100347.88;348673;28;1517;-76
2023/01/07 00:06:15;;;;;;;;;;;;;;;8.33;60.17;100350.53;349281;28;1616;-76
2023/01/07 00:06:29;;;;;;;;;;;;;;;8.33;60.02;100340.94;349392;28;4171;-76
2023/01/07 00:06:39;;;;;;;;;;;;;;;8.33;60.04;100340.94;348029;28;3254;-77
2023/01/07 00:06:51;;;;;;;;;;;;;;;8.33;59.56;100340.94;348815;28;1691;-77
2023/01/07 00:07:01;;;;;;;;;;;;;;;8.32;59.75;100347.06;347112;28;3071;-77
2023/01/07 00:07:12;;;;;;;;;;;;;;;8.32;59.76;100349.66;348198;28;1431;-76
2023/01/07 00:07:22;;;;;;;;;;;;;;;8.33;59.96;100345.31;348382;28;3604;-76
2023/01/07 00:07:32;;;;;;;;;;;;;;;8.33;59.72;100345.31;347730;28;5044;-76
2023/01/07 00:07:42;;;;;;;;;;;;;;;8.33;59.60;100346.16;345794;28;3604;-76
2023/01/07 00:07:52;;;;;;;;;;;;;;;8.33;60.00;100351.38;345915;28;1810;-76
2023/01/07 00:08:03;;;;;;;;;;;;;;;8.34;59.77;100352.22;345782;28;3096;-77
2023/01/07 00:08:13;;;;;;;;;;;;;;;8.32;60.12;100349.66;345414;28;1424;-78
2023/01/07 00:08:23;;;;;;;;;;;;;;;8.33;59.94;100343.56;345322;28;4166;-76
2023/01/07 00:08:34;;;;;;;;;;;;;;;8.33;59.65;100348.78;344723;28;3386;-76
2023/01/07 00:08:45;;;;;;;;;;;;;;;8.33;59.59;100351.38;348560;28;1423;-77
2023/01/07 00:08:56;;;;;;;;;;;;;;;8.33;60.02;100353.97;347417;28;1736;-77
2023/01/07 00:09:06;;;;;;;;;;;;;;;8.33;59.61;100345.31;346130;28;3462;-77
2023/01/07 00:09:17;;;;;;;;;;;;;;;8.32;60.00;100349.66;344585;28;3596;-77
2023/01/07 00:09:27;;;;;;;;;;;;;;;8.31;59.75;100345.28;341013;28;5620;-76
2023/01/07 00:09:37;;;;;;;;;;;;;;;8.31;59.67;100347.91;344606;28;3135;-76
2023/01/07 00:09:48;;;;;;;;;;;;;;;8.30;59.55;100343.56;346187;28;1701;-76
2023/01/07 00:09:58;;;;;;;;;;;;;;;8.32;60.14;100353.97;347187;28;2989;-76
2023/01/07 00:10:08;;;;;;;;;;;;;;;8.29;59.81;100341.84;347047;28;1403;-76
2023/01/07 00:10:18;;;;;;;;;;;;;;;8.29;60.05;100347.06;344607;28;3519;-76
2023/01/07 00:10:28;;;;;;;;;;;;;;;8.30;59.64;100350.53;341548;28;5493;-76
2023/01/07 00:10:39;;;;;;;;;;;;;;;8.29;60.14;100341.84;344080;28;3136;-76
2023/01/07 00:10:49;;;;;;;;;;;;;;;8.28;59.75;100347.97;347725;28;1664;-76
2023/01/07 00:10:59;;;;;;;;;;;;;;;8.30;59.66;100351.41;346554;28;3176;-76
2023/01/07 00:11:11;;;;;;;;;;;;;;;8.30;59.68;100351.41;346601;28;1686;-78
2023/01/07 00:11:25;;;;;;;;;;;;;;;8.29;59.71;100348.81;343931;28;4185;-77
2023/01/07 00:11:35;;;;;;;;;;;;;;;8.28;59.94;100347.97;341277;28;3394;-77
2023/01/07 00:11:46;;;;;;;;;;;;;;;8.27;60.06;100346.25;344722;28;1447;-77
2023/01/07 00:11:56;;;;;;;;;;;;;;;8.27;59.69;100351.47;345854;28;1995;-76
2023/01/07 00:12:06;;;;;;;;;;;;;;;8.26;59.70;100349.75;346476;28;3101;-77
2023/01/07 00:12:16;;;;;;;;;;;;;;;8.26;60.19;100349.75;346222;28;1594;-80
2023/01/07 00:12:26;;;;;;;;;;;;;;;8.26;59.88;100349.75;343052;28;5348;-77
2023/01/07 00:12:37;;;;;;;;;;;;;;;8.26;60.07;100357.56;343444;28;5948;-77
2023/01/07 00:12:47;;;;;;;;;;;;;;;8.25;59.88;100350.63;342269;28;1511;-77
2023/01/07 00:12:57;;;;;;;;;;;;;;;8.25;59.49;100353.25;339326;29;1748;-77
2023/01/07 00:13:07;;;;;;;;;;;;;;;8.25;59.95;100350.63;342365;28;3439;-77
2023/01/07 00:13:18;;;;;;;;;;;;;;;8.26;59.85;100356.72;340988;28;1389;-77
2023/01/07 00:13:28;;;;;;;;;;;;;;;8.24;60.04;100348.91;337787;28;5755;-77
2023/01/07 00:13:38;;;;;;;;;;;;;;;8.23;59.99;100349.81;338733;28;3028;-77
2023/01/07 00:13:49;;;;;;;;;;;;;;;8.24;60.15;100351.53;339001;29;1866;-77
2023/01/07 00:13:59;;;;;;;;;;;;;;;8.24;60.10;100351.53;333239;29;3135;-77
2023/01/07 00:14:10;;;;;;;;;;;;;;;8.23;59.82;100349.81;335529;29;2104;-77
2023/01/07 00:14:20;;;;;;;;;;;;;;;8.22;59.91;100352.47;336595;29;3568;-77
2023/01/07 00:14:30;;;;;;;;;;;;;;;8.21;59.85;100356.81;333768;29;5083;-76
2023/01/07 00:14:40;;;;;;;;;;;;;;;8.21;60.16;100356.81;334141;29;3237;-77
2023/01/07 00:14:51;;;;;;;;;;;;;;;8.21;60.00;100362.03;332794;29;1701;-77
2023/01/07 00:15:01;;;;;;;;;;;;;;;8.20;60.03;100356.84;332792;29;3225;-76
2023/01/07 00:15:11;;;;;;;;;;;;;;;8.20;59.95;100355.09;332876;29;1428;-76
2023/01/07 00:15:21;;;;;;;;;;;;;;;8.19;60.17;100353.38;330019;29;3492;-76
2023/01/07 00:15:32;;;;;;;;;;;;;;;8.19;60.46;100356.00;327881;29;5732;-76
2023/01/07 00:15:42;;;;;;;;;;;;;;;8.18;60.34;100356.88;330237;29;3140;-76
2023/01/07 00:16:02;;;;;;;;;;;;;;;8.18;60.34;100362.09;329714;29;2230;-76
2023/01/07 00:16:13;;;;;;;;;;;;;;;8.16;60.02;100356.06;329511;29;2553;-76
2023/01/07 00:16:24;;;;;;;;;;;;;;;8.15;60.20;100356.94;331544;29;3572;-76
2023/01/07 00:16:35;;;;;;;;;;;;;;;8.15;59.93;100356.94;336057;29;3271;-76
2023/01/07 00:16:45;;;;;;;;;;;;;;;8.16;59.84;100353.44;334716;29;1471;-76
2023/01/07 00:16:55;;;;;;;;;;;;;;;8.15;60.06;100356.94;333406;29;3322;-76
2023/01/07 00:17:05;;;;;;;;;;;;;;;8.15;60.12;100356.94;330664;29;4258;-77
2023/01/07 00:17:15;;;;;;;;;;;;;;;8.14;60.01;100360.44;332323;29;3531;-78
2023/01/07 00:17:26;;;;;;;;;;;;;;;8.15;59.82;100356.06;328102;29;6015;-76
2023/01/07 00:17:36;;;;;;;;;;;;;;;8.14;59.82;100355.22;326762;30;3409;-76
2023/01/07 00:17:46;;;;;;;;;;;;;;;8.13;60.21;100350.91;330186;29;1662;-77
2023/01/07 00:17:56;;;;;;;;;;;;;;;8.14;59.94;100357.81;329847;29;3134;-77
2023/01/07 00:18:07;;;;;;;;;;;;;;;8.13;60.52;100352.66;326247;29;2907;-77
2023/01/07 00:18:17;;;;;;;;;;;;;;;8.13;60.13;100355.25;321907;30;1542;-76
2023/01/07 00:18:27;;;;;;;;;;;;;;;8.12;60.55;100351.78;317289;30;3695;-78
2023/01/07 00:18:39;;;;;;;;;;;;;;;8.13;60.07;100353.50;320271;30;5688;-77
2023/01/07 00:18:49;;;;;;;;;;;;;;;8.12;60.20;100354.38;319630;30;3478;-77
2023/01/07 00:19:00;;;;;;;;;;;;;;;8.11;60.43;100357.03;315340;31;3372;-76
2023/01/07 00:19:13;;;;;;;;;;;;;;;8.10;60.19;100356.16;319513;30;3431;-76
2023/01/07 00:19:23;;;;;;;;;;;;;;;8.09;60.21;100359.66;318486;30;4303;-76
2023/01/07 00:19:34;;;;;;;;;;;;;;;8.09;60.23;100351.84;319340;30;3407;-76
2023/01/07 00:19:44;;;;;;;;;;;;;;;8.10;60.14;100356.16;314511;31;1497;-76
2023/01/07 00:19:54;;;;;;;;;;;;;;;8.10;60.70;100355.31;316503;30;2887;-76
2023/01/07 00:20:10;;;;;;;;;;;;;;;8.10;60.23;100357.91;318444;30;3738;-76
2023/01/07 00:20:20;;;;;;;;;;;;;;;8.09;60.16;100358.81;313859;31;5030;-76
2023/01/07 00:20:31;;;;;;;;;;;;;;;8.10;60.62;100357.91;311743;31;5465;-76
2023/01/07 00:20:41;;;;;;;;;;;;;;;8.10;60.58;100357.91;309626;31;4647;-76
2023/01/07 00:20:54;;;;;;;;;;;;;;;8.09;60.35;100357.06;311237;31;4666;-77
2023/01/07 00:21:05;;;;;;;;;;;;;;;8.08;60.16;100365.75;310495;31;4095;-77
2023/01/07 00:21:16;;;;;;;;;;;;;;;8.08;60.47;100364.91;310169;31;3696;-77
2023/01/07 00:21:27;;;;;;;;;;;;;;;8.08;60.34;100368.38;309670;31;5780;-77
2023/01/07 00:21:37;;;;;;;;;;;;;;;8.08;60.43;100365.75;309613;31;3346;-77
2023/01/07 00:21:47;;;;;;;;;;;;;;;8.07;60.18;100366.66;308630;31;2076;-77
2023/01/07 00:21:57;;;;;;;;;;;;;;;8.08;60.48;100364.91;309250;31;3304;-77
2023/01/07 00:22:08;;;;;;;;;;;;;;;8.07;60.44;100366.66;307268;32;3649;-77
2023/01/07 00:22:18;;;;;;;;;;;;;;;8.06;60.39;100362.31;304755;32;4564;-77
2023/01/07 00:22:28;;;;;;;;;;;;;;;8.07;60.70;100364.03;300971;32;5738;-78
2023/01/07 00:22:38;;;;;;;;;;;;;;;8.06;60.76;100362.31;303865;32;5084;-77
2023/01/07 00:22:49;;;;;;;;;;;;;;;8.04;60.81;100358.88;302224;32;6932;-77
2023/01/07 00:22:59;;;;;;;;;;;;;;;8.04;61.12;100360.63;299429;32;3445;-77
2023/01/07 00:23:10;;;;;;;;;;;;;;;8.00;60.91;100358.06;301235;32;6189;-77
2023/01/07 00:23:20;;;;;;;;;;;;;;;8.00;60.71;100357.22;298376;32;5440;-76
2023/01/07 00:23:30;;;;;;;;;;;;;;;8.00;60.79;100363.28;295870;33;5729;-77
2023/01/07 00:23:41;;;;;;;;;;;;;;;8.00;61.02;100362.44;298283;32;5962;-77
2023/01/07 00:23:55;;;;;;;;;;;;;;;8.01;60.91;100361.53;297027;33;4380;-77
2023/01/07 00:24:05;;;;;;;;;;;;;;;8.00;60.99;100357.22;295965;33;5945;-77
2023/01/07 00:24:15;;;;;;;;;;;;;;;7.99;61.28;100355.50;292856;33;3619;-77
2023/01/07 00:24:26;;;;;;;;;;;;;;;8.00;61.33;100357.22;291017;33;5499;-77
2023/01/07 00:24:36;;;;;;;;;;;;;;;7.98;61.40;100359.00;292468;33;6013;-77
2023/01/07 00:24:46;;;;;;;;;;;;;;;7.99;61.15;100365.91;294269;33;1793;-78
2023/01/07 00:24:56;;;;;;;;;;;;;;;7.98;61.40;100359.00;289131;33;8229;-78
2023/01/07 00:25:07;;;;;;;;;;;;;;;7.97;61.20;100367.69;287857;33;7721;-77
2023/01/07 00:25:17;;;;;;;;;;;;;;;7.96;60.98;100363.38;288298;34;3592;-77
2023/01/07 00:25:27;;;;;;;;;;;;;;;7.94;61.35;100352.97;290314;33;8279;-77
2023/01/07 00:25:38;;;;;;;;;;;;;;;7.95;61.60;100359.91;288864;34;7590;-77
2023/01/07 00:25:48;;;;;;;;;;;;;;;7.96;61.09;100363.38;286910;34;1747;-77
2023/01/07 00:26:02;;;;;;;;;;;;;;;7.96;61.40;100365.97;283197;34;8015;-77
2023/01/07 00:26:13;;;;;;;;;;;;;;;7.94;61.36;100359.94;283525;34;6557;-77
2023/01/07 00:26:24;;;;;;;;;;;;;;;7.95;61.27;100359.03;281586;34;9287;-77
2023/01/07 00:28:03;;;;;;;;;;;;;;;7.90;61.10;100368.69;2490914;27;19926;-78
2023/01/07 00:28:13;;;;;;;;;;;;;;;7.87;61.88;100361.78;352548;27;3444;-78
2023/01/07 00:28:23;;;;;;;;;;;;;;;7.88;61.99;100360.03;351409;28;5117;-77
2023/01/07 00:28:34;;;;;;;;;;;;;;;7.88;62.03;100367.84;351236;28;3162;-77
2023/01/07 00:28:45;;;;;;;;;;;;;;;7.89;61.76;100364.38;350211;28;1505;-77
2023/01/07 00:28:55;;;;;;;;;;;;;;;7.87;61.78;100356.56;349340;28;3433;-78
2023/01/07 00:29:06;;;;;;;;;;;;;;;7.88;61.85;100367.84;347107;28;1502;-78
2023/01/07 00:29:17;;;;;;;;;;;;;;;7.87;61.88;100368.75;345727;28;4866;-78
2023/01/07 00:29:27;;;;;;;;;;;;;;;7.87;62.17;100368.75;347408;28;3582;-77
2023/01/07 00:29:37;;;;;;;;;;;;;;;7.86;62.44;100367.88;348751;28;1509;-78
2023/01/07 00:29:48;;;;;;;;;;;;;;;7.86;61.99;100362.66;345917;28;1500;-78
2023/01/07 00:29:58;;;;;;;;;;;;;;;7.86;62.36;100364.41;347044;28;3403;-78
2023/01/07 00:30:09;;;;;;;;;;;;;;;7.84;61.73;100366.19;349154;28;1450;-78
2023/01/07 00:30:19;;;;;;;;;;;;;;;7.84;61.96;100368.78;343324;28;5261;-77
2023/01/07 00:30:29;;;;;;;;;;;;;;;7.84;62.06;100366.19;346486;28;3439;-77
2023/01/07 00:30:39;;;;;;;;;;;;;;;7.84;62.27;100366.19;347548;28;1679;-78
2023/01/07 00:30:50;;;;;;;;;;;;;;;7.83;62.04;100367.94;350330;28;1493;-78
2023/01/07 00:31:00;;;;;;;;;;;;;;;7.83;62.21;100364.47;347495;28;3618;-78
2023/01/07 00:31:12;;;;;;;;;;;;;;;7.82;62.29;100365.34;347585;28;1335;-78
2023/01/07 00:31:23;;;;;;;;;;;;;;;7.82;62.14;100365.34;344428;28;5289;-78
2023/01/07 00:31:34;;;;;;;;;;;;;;;7.80;62.54;100367.16;345897;28;3175;-78
2023/01/07 00:31:44;;;;;;;;;;;;;;;7.79;62.07;100361.09;346104;28;1584;-77
2023/01/07 00:31:55;;;;;;;;;;;;;;;7.80;62.41;100370.59;348956;28;3293;-78
2023/01/07 00:32:06;;;;;;;;;;;;;;;7.80;62.56;100364.56;348565;28;1525;-77
2023/01/07 00:32:16;;;;;;;;;;;;;;;7.79;62.73;100362.84;347151;28;5290;-75
2023/01/07 00:32:50;;;;;;;;;;;;;;;7.77;62.08;100362.88;345734;28;3340;-75
2023/01/07 00:33:03;;;;;;;;;;;;;;;7.74;62.64;100369.88;344770;28;1313;-76
2023/01/07 00:33:15;;;;;;;;;;;;;;;7.69;62.65;100362.13;346665;28;3519;-76
2023/01/07 00:33:27;;;;;;;;;;;;;;;7.68;62.81;100363.88;345096;28;4835;-77
2023/01/07 00:33:46;;;;;;;;;;;;;;;7.68;62.70;100363.00;345908;28;1636;-77
2023/01/07 00:34:07;;;;;;;;;;;;;;;7.67;62.99;100364.75;345554;28;1427;-78
2023/01/07 00:34:22;;;;;;;;;;;;;;;7.68;62.24;100366.47;344202;28;5649;-77
2023/01/07 00:34:33;;;;;;;;;;;;;;;7.69;62.33;100367.34;344035;28;3208;-78
2023/01/07 00:34:43;;;;;;;;;;;;;;;7.71;62.14;100364.72;344993;28;1782;-78
2023/01/07 00:34:53;;;;;;;;;;;;;;;7.68;62.27;100366.47;346099;28;3129;-78
2023/01/07 00:35:20;;;;;;;;;;;;;;;7.69;62.43;100367.34;343722;28;1428;-78
2023/01/07 00:35:35;;;;;;;;;;;;;;;7.65;62.51;100366.53;344242;28;3245;-78
2023/01/07 00:35:46;;;;;;;;;;;;;;;7.65;62.88;100366.53;347556;28;1709;-78
2023/01/07 00:36:07;;;;;;;;;;;;;;;7.64;62.89;100367.41;345270;28;3441;-78
2023/01/07 00:36:18;;;;;;;;;;;;;;;7.64;62.61;100361.34;341180;28;3852;-78
2023/01/07 00:36:29;;;;;;;;;;;;;;;7.63;62.64;100362.22;340095;28;3352;-78
2023/01/07 00:36:42;;;;;;;;;;;;;;;7.62;62.74;100365.72;337317;28;1768;-78
2023/01/07 00:37:48;;;;;;;;;;;;;;;7.62;62.88;100363.97;336493;29;3487;-78
2023/01/07 00:37:52;;;;;;;;;;;;;;;7.64;62.66;100362.22;332129;29;1797;-78
2023/01/07 00:38:02;;;;;;;;;;;;;;;7.65;62.32;100366.53;329700;29;1496;-78
2023/01/07 00:38:13;;;;;;;;;;;;;;;7.63;62.89;100362.22;330099;29;3897;-78
2023/01/07 00:38:23;;;;;;;;;;;;;;;7.62;63.12;100363.97;327718;29;3297;-78
2023/01/07 00:38:34;;;;;;;;;;;;;;;7.60;62.51;100364.88;326732;30;1758;-78
2023/01/07 00:38:44;;;;;;;;;;;;;;;7.61;63.01;100364.00;324353;30;2046;-78
2023/01/07 00:38:58;;;;;;;;;;;;;;;7.61;62.65;100364.00;323162;30;3007;-78
2023/01/07 00:39:12;;;;;;;;;;;;;;;7.58;62.62;100366.66;322650;30;1818;-78
2023/01/07 00:39:22;;;;;;;;;;;;;;;7.59;62.79;100366.63;320563;30;5541;-78
2023/01/07 00:39:33;;;;;;;;;;;;;;;7.57;63.13;100371.00;322798;30;3428;-78
2023/01/07 00:39:43;;;;;;;;;;;;;;;7.56;62.86;100371.88;322307;30;1444;-78
2023/01/07 00:39:53;;;;;;;;;;;;;;;7.56;63.00;100371.88;320538;30;3309;-78
2023/01/07 00:40:03;;;;;;;;;;;;;;;7.57;62.74;100373.59;319660;30;1440;-78
2023/01/07 00:40:14;;;;;;;;;;;;;;;7.56;63.34;100371.88;319485;30;3707;-78
2023/01/07 00:40:24;;;;;;;;;;;;;;;7.57;63.08;100370.16;315470;30;5034;-78
2023/01/07 00:40:34;;;;;;;;;;;;;;;7.56;63.15;100373.63;314911;31;3024;-78
2023/01/07 00:40:44;;;;;;;;;;;;;;;7.57;63.08;100373.59;317962;30;2389;-78
2023/01/07 00:40:55;;;;;;;;;;;;;;;7.57;62.76;100372.75;318576;30;3283;-78
2023/01/07 00:41:05;;;;;;;;;;;;;;;7.57;63.27;100364.94;315620;31;1465;-78
2023/01/07 00:41:15;;;;;;;;;;;;;;;7.55;62.72;100369.31;312738;31;4780;-75
2023/01/07 00:41:25;;;;;;;;;;;;;;;7.52;63.09;100370.22;311929;31;3383;-75
2023/01/07 00:41:36;;;;;;;;;;;;;;;7.53;63.11;100371.06;314086;31;1447;-75
2023/01/07 00:42:53;;;;;;;;;;;;;;;7.53;62.90;100374.53;312241;31;3145;-76
2023/01/07 00:43:04;;;;;;;;;;;;;;;7.52;62.62;100375.44;313797;31;1297;-77
2023/01/07 00:43:14;;;;;;;;;;;;;;;7.52;63.13;100375.44;309265;31;5471;-76
2023/01/07 00:43:25;;;;;;;;;;;;;;;7.51;62.95;100371.09;310624;31;5480;-76
2023/01/07 00:43:35;;;;;;;;;;;;;;;7.50;62.88;100369.38;309599;31;1413;-78
2023/01/07 00:43:45;;;;;;;;;;;;;;;7.51;62.87;100373.72;308053;32;2473;-78
2023/01/07 00:43:55;;;;;;;;;;;;;;;7.52;63.03;100374.56;306555;32;3531;-78
2023/01/07 00:44:05;;;;;;;;;;;;;;;7.52;62.68;100378.03;304361;32;1480;-77
2023/01/07 00:44:16;;;;;;;;;;;;;;;7.53;62.26;100382.34;303878;32;3179;-76
2023/01/07 00:44:26;;;;;;;;;;;;;;;7.53;62.24;100377.16;303465;32;3321;-76
2023/01/07 00:44:37;;;;;;;;;;;;;;;7.53;62.72;100371.06;302236;32;4598;-76
2023/01/07 00:44:47;;;;;;;;;;;;;;;7.52;62.88;100385.84;304314;32;3253;-76
2023/01/07 00:44:57;;;;;;;;;;;;;;;7.51;62.87;100376.31;307931;31;4119;-76
2023/01/07 00:45:08;;;;;;;;;;;;;;;7.50;62.87;100377.19;307925;31;4434;-76
2023/01/07 00:45:19;;;;;;;;;;;;;;;7.52;62.86;100374.56;301651;32;5720;-76
2023/01/07 00:45:30;;;;;;;;;;;;;;;7.52;62.62;100377.16;300434;32;4304;-76
2023/01/07 00:45:41;;;;;;;;;;;;;;;7.50;62.34;100377.19;300665;32;4700;-76
2023/01/07 00:45:51;;;;;;;;;;;;;;;7.49;62.67;100375.47;303880;32;3435;-76
2023/01/07 00:46:01;;;;;;;;;;;;;;;7.48;62.74;100373.75;305982;32;3442;-76
2023/01/07 00:46:12;;;;;;;;;;;;;;;7.48;62.40;100373.75;300264;32;3565;-76
2023/01/07 00:46:22;;;;;;;;;;;;;;;7.47;62.15;100382.44;300745;32;4090;-76
2023/01/07 00:46:32;;;;;;;;;;;;;;;7.46;62.45;100372.06;301280;32;2028;-77
2023/01/07 00:46:43;;;;;;;;;;;;;;;7.45;62.85;100373.81;294753;33;4625;-76
2023/01/07 00:46:53;;;;;;;;;;;;;;;7.45;62.85;100379.00;294563;32;6037;-76
2023/01/07 00:47:03;;;;;;;;;;;;;;;7.45;62.98;100375.53;297664;33;1430;-76
2023/01/07 00:47:13;;;;;;;;;;;;;;;7.45;62.42;100375.53;294034;33;6670;-76
2023/01/07 00:47:23;;;;;;;;;;;;;;;7.45;62.98;100373.81;291396;33;6283;-76
2023/01/07 00:47:34;;;;;;;;;;;;;;;7.45;62.93;100373.81;292879;33;1469;-76
2023/01/07 00:47:44;;;;;;;;;;;;;;;7.46;62.73;100372.06;293177;33;6069;-76
2023/01/07 00:47:55;;;;;;;;;;;;;;;7.45;62.38;100371.19;293895;33;6414;-76
2023/01/07 00:48:06;;;;;;;;;;;;;;;7.45;62.47;100373.81;292888;33;1531;-76
2023/01/07 00:48:17;;;;;;;;;;;;;;;7.46;62.38;100372.06;288035;34;1457;-77
2023/01/07 00:48:27;;;;;;;;;;;;;;;7.45;62.26;100373.81;287202;34;4839;-77
2023/01/07 00:48:38;;;;;;;;;;;;;;;7.47;62.82;100376.38;286042;34;6529;-77
2023/01/07 00:48:48;;;;;;;;;;;;;;;7.46;62.69;100372.06;286200;34;1440;-77
2023/01/07 00:48:58;;;;;;;;;;;;;;;7.45;62.72;100372.94;282604;34;7106;-77
2023/01/07 00:49:08;;;;;;;;;;;;;;;7.44;62.92;100377.28;281462;34;8528;-77
2023/01/07 00:49:19;;;;;;;;;;;;;;;7.45;62.60;100379.00;280729;35;2028;-77
2023/01/07 00:49:29;;;;;;;;;;;;;;;7.43;62.47;100375.56;281680;34;9293;-76
2023/01/07 00:49:39;;;;;;;;;;;;;;;7.44;63.12;100371.22;280847;34;8722;-76
2023/01/07 00:49:49;;;;;;;;;;;;;;;7.44;62.57;100374.69;280868;35;1499;-76
2023/01/07 00:50:00;;;;;;;;;;;;;;;7.44;62.86;100372.06;277376;35;8337;-76
2023/01/07 00:50:10;;;;;;;;;;;;;;;7.44;62.37;100377.28;277121;35;9029;-76
2023/01/07 00:50:21;;;;;;;;;;;;;;;7.43;62.54;100370.38;275417;35;1461;-76
2023/01/07 00:50:33;;;;;;;;;;;;;;;7.43;62.78;100370.38;273330;35;6916;-76
2023/01/07 00:52:43;;;;;;;;;;;;;;;7.41;62.74;100376.47;2485138;27;19938;-76
2023/01/07 00:52:53;;;;;;;;;;;;;;;7.41;62.87;100372.13;351348;27;4989;-76
2023/01/07 00:53:04;;;;;;;;;;;;;;;7.41;62.27;100372.13;349368;28;3206;-76
2023/01/07 00:53:14;;;;;;;;;;;;;;;7.42;62.26;100378.19;347929;28;1978;-76
2023/01/07 00:53:24;;;;;;;;;;;;;;;7.42;62.37;100370.38;346984;28;3428;-76
2023/01/07 00:53:34;;;;;;;;;;;;;;;7.41;62.10;100374.72;348414;28;1280;-76
2023/01/07 00:53:45;;;;;;;;;;;;;;;7.42;62.26;100379.06;349635;28;3907;-76
2023/01/07 00:53:55;;;;;;;;;;;;;;;7.41;62.28;100372.13;346857;28;5614;-76
2023/01/07 00:54:05;;;;;;;;;;;;;;;7.41;62.58;100374.72;348310;28;3603;-76
2023/01/07 00:54:15;;;;;;;;;;;;;;;7.41;62.43;100372.13;348908;28;1902;-76
2023/01/07 00:54:26;;;;;;;;;;;;;;;7.41;62.17;100377.34;347242;28;3280;-76
2023/01/07 00:54:36;;;;;;;;;;;;;;;7.41;62.70;100371.28;347984;28;1462;-76
2023/01/07 00:54:46;;;;;;;;;;;;;;;7.42;62.49;100372.97;349005;28;1430;-76
2023/01/07 00:54:57;;;;;;;;;;;;;;;7.42;62.77;100378.19;348899;28;3496;-76
2023/01/07 00:55:09;;;;;;;;;;;;;;;7.42;62.28;100381.66;347188;28;5816;-76
2023/01/07 00:55:20;;;;;;;;;;;;;;;7.41;62.63;100381.69;348504;28;3690;-76
2023/01/07 00:55:30;;;;;;;;;;;;;;;7.41;62.37;100379.94;347139;28;2396;-76
2023/01/07 00:55:40;;;;;;;;;;;;;;;7.39;62.86;100379.09;350359;28;1330;-76
2023/01/07 00:55:50;;;;;;;;;;;;;;;7.40;62.27;100378.22;350279;28;1314;-76
2023/01/07 00:56:01;;;;;;;;;;;;;;;7.39;62.38;100375.63;348506;28;3678;-76
2023/01/07 00:56:11;;;;;;;;;;;;;;;7.39;62.86;100378.25;347338;28;3720;-76
2023/01/07 00:56:21;;;;;;;;;;;;;;;7.39;62.51;100380.84;348809;28;1407;-76
2023/01/07 00:56:32;;;;;;;;;;;;;;;7.40;62.51;100378.22;347274;28;1783;-76
2023/01/07 00:56:42;;;;;;;;;;;;;;;7.39;62.68;100379.09;342474;28;3115;-76
2023/01/07 00:56:52;;;;;;;;;;;;;;;7.38;62.70;100377.38;344694;28;1320;-76
2023/01/07 00:57:03;;;;;;;;;;;;;;;7.38;62.75;100377.38;345099;28;1455;-76
2023/01/07 00:57:13;;;;;;;;;;;;;;;7.40;63.04;100375.63;342384;28;3968;-76
2023/01/07 00:57:23;;;;;;;;;;;;;;;7.39;62.72;100379.09;343675;28;3216;-76
2023/01/07 00:57:33;;;;;;;;;;;;;;;7.38;63.25;100381.72;346296;28;1511;-76
2023/01/07 00:57:44;;;;;;;;;;;;;;;7.35;63.58;100377.47;347236;28;2934;-76
2023/01/07 00:57:54;;;;;;;;;;;;;;;7.34;63.39;100374.00;348781;28;1427;-78
2023/01/07 00:58:04;;;;;;;;;;;;;;;7.33;63.47;100379.22;345779;28;4001;-77
2023/01/07 00:58:15;;;;;;;;;;;;;;;7.31;63.14;100381.00;343573;28;5000;-77
2023/01/07 00:58:26;;;;;;;;;;;;;;;7.29;63.21;100375.81;344845;28;1891;-77
2023/01/07 00:58:36;;;;;;;;;;;;;;;7.30;63.73;100379.28;345500;28;1617;-77
2023/01/07 00:58:46;;;;;;;;;;;;;;;7.30;63.39;100376.66;347289;28;3422;-77
2023/01/07 00:58:56;;;;;;;;;;;;;;;7.30;63.85;100372.31;342591;28;1488;-77
2023/01/07 00:59:07;;;;;;;;;;;;;;;7.30;63.57;100380.13;340576;28;5648;-77
2023/01/07 00:59:17;;;;;;;;;;;;;;;7.30;63.22;100374.94;342343;28;5830;-77
2023/01/07 00:59:27;;;;;;;;;;;;;;;7.31;62.98;100376.66;340574;28;3463;-77
2023/01/07 00:59:37;;;;;;;;;;;;;;;7.33;63.40;100381.84;341891;28;1783;-77
2023/01/07 00:59:48;;;;;;;;;;;;;;;7.31;63.46;100381.00;340755;29;3485;-77
2023/01/07 00:59:59;;;;;;;;;;;;;;;7.31;63.45;100381.00;339436;29;1516;-77
2023/01/07 01:00:10;;;;;;;;;;;;;;;7.31;63.12;100375.78;337811;29;5700;-76
2023/01/07 01:00:21;;;;;;;;;;;;;;;7.29;62.98;100378.41;341253;28;3521;-76
2023/01/07 01:00:31;;;;;;;;;;;;;;;7.30;63.41;100374.94;348939;28;1624;-77
2023/01/07 01:00:41;;;;;;;;;;;;;;;7.30;63.52;100374.94;345412;28;1861;-77
2023/01/07 01:00:55;;;;;;;;;;;;;;;7.31;63.04;100386.19;346044;28;3545;-77
2023/01/07 01:01:05;;;;;;;;;;;;;;;7.31;63.32;100378.38;345713;28;3326;-76
2023/01/07 01:01:15;;;;;;;;;;;;;;;7.31;63.05;100375.78;341482;28;5762;-77
2023/01/07 01:01:26;;;;;;;;;;;;;;;7.29;63.26;100373.19;343629;28;1826;-77
2023/01/07 01:01:37;;;;;;;;;;;;;;;7.31;63.39;100373.19;342992;28;1988;-77
2023/01/07 01:01:47;;;;;;;;;;;;;;;7.31;63.05;100381.84;342014;28;3351;-77
2023/01/07 01:01:57;;;;;;;;;;;;;;;7.32;63.10;100380.09;339893;29;1402;-77
2023/01/07 01:02:07;;;;;;;;;;;;;;;7.32;63.04;100374.91;339373;28;5705;-76
2023/01/07 01:02:18;;;;;;;;;;;;;;;7.32;63.58;100375.75;340341;28;3695;-77
2023/01/07 01:02:28;;;;;;;;;;;;;;;7.31;63.52;100378.38;341108;28;1456;-76
2023/01/07 01:02:38;;;;;;;;;;;;;;;7.29;63.12;100381.00;341648;28;1809;-76
2023/01/07 01:02:48;;;;;;;;;;;;;;;7.29;63.14;100372.34;342880;28;3572;-76
2023/01/07 01:02:59;;;;;;;;;;;;;;;7.27;63.06;100377.56;340554;28;3451;-76
2023/01/07 01:03:12;;;;;;;;;;;;;;;7.27;63.19;100376.72;336979;28;5399;-76
2023/01/07 01:03:22;;;;;;;;;;;;;;;7.27;63.02;100368.91;336451;29;2068;-77
2023/01/07 01:03:33;;;;;;;;;;;;;;;7.26;63.05;100375.00;335554;29;2185;-77
2023/01/07 01:03:43;;;;;;;;;;;;;;;7.26;63.50;100373.25;334648;29;3050;-76
2023/01/07 01:03:53;;;;;;;;;;;;;;;7.26;63.33;100382.81;333936;29;1792;-76
2023/01/07 01:04:05;;;;;;;;;;;;;;;7.25;62.93;100375.88;331255;29;5778;-76
2023/01/07 01:04:15;;;;;;;;;;;;;;;7.24;62.92;100369.81;332859;29;3381;-76
2023/01/07 01:04:25;;;;;;;;;;;;;;;7.25;63.50;100376.72;331623;29;1757;-76
2023/01/07 01:04:35;;;;;;;;;;;;;;;7.26;63.14;100377.59;328494;29;1894;-76
2023/01/07 01:04:46;;;;;;;;;;;;;;;7.27;63.15;100374.09;326824;30;3515;-76
2023/01/07 01:04:56;;;;;;;;;;;;;;;7.27;63.18;100379.31;328166;29;3588;-76
2023/01/07 01:05:06;;;;;;;;;;;;;;;7.26;62.93;100370.66;322949;30;5422;-77
2023/01/07 01:05:17;;;;;;;;;;;;;;;7.27;62.83;100379.31;322962;30;3524;-76